Ye Chi — VRFV6 — position and weather

sailwx.info

Track history (hours):
 
Tides and Currents Weather Stations Pressure Air Temp Water Temp Dewpoint Dewpoint Depression Visibility Wind Speed Wind Dir Waves Ship Positions

Ye Chi

Last reported at 2015-Mar-04 07:27 UTC. Time now 2015-Mar-05 18:45 UTC.
Position N 01°55' E 102°21'.

Length 187 m; draft 7.5 m.

Type: Ship (hazmat cat D). MMSI: 477621300.

Date/timePositionNaut miles runAvg speedWind from/ knotsBaromVisibWave heightAir tempDewpointWater temp
2015-Mar-04 07:27N 01°55' E 102°21'1615.2
2015-Mar-04 06:22N 01°48' E 102°35'8113.9
2015-Mar-04 00:31N 01°11' E 103°47'3 3.0
2015-Mar-03 23:25N 01°14' E 103°48'0 0.0
2015-Mar-03 22:28N 01°14' E 103°48'0 0.0
2015-Mar-03 21:31N 01°14' E 103°48'0 0.0
2015-Mar-03 20:28N 01°14' E 103°48'0 0.1
2015-Mar-03 19:31N 01°14' E 103°48'0 0.0
2015-Mar-03 18:07N 01°14' E 103°48'0 0.1
2015-Mar-03 17:31N 01°14' E 103°48'0 0.1
2015-Mar-03 16:25N 01°14' E 103°48'0 0.0
2015-Mar-03 15:31N 01°14' E 103°48'0 0.0
2015-Mar-03 14:34N 01°14' E 103°48'0 0.0
2015-Mar-03 13:31N 01°14' E 103°48'0 0.1
2015-Mar-03 12:31N 01°14' E 103°48'0 0.0
2015-Mar-03 11:25N 01°14' E 103°48'0 0.1
2015-Mar-03 10:04N 01°14' E 103°48'0 0.2
2015-Mar-03 09:07N 01°14' E 103°48'0 0.0
2015-Mar-03 08:25N 01°14' E 103°48'0 0.0
2015-Mar-03 07:28N 01°14' E 103°48'0 0.0
2015-Mar-03 06:19N 01°14' E 103°48'0 0.0
2015-Mar-03 05:31N 01°14' E 103°48'0 0.0
2015-Mar-03 04:25N 01°14' E 103°48'0 0.1
2015-Mar-03 03:31N 01°14' E 103°48'0 0.0
2015-Mar-03 02:16N 01°14' E 103°48'0 0.0
2015-Mar-03 01:31N 01°14' E 103°48'8 0.4
2015-Mar-02 03:06N 01°12' E 103°40'5 9.9
2015-Mar-02 02:33N 01°15' E 103°45'0 0.2
2015-Mar-02 01:31N 01°14' E 103°45'0 0.0
2015-Mar-02 00:31N 01°14' E 103°45'0 0.0
2015-Mar-01 20:13N 01°14' E 103°45'0 0.0
2015-Mar-01 12:31N 01°14' E 103°45'0 0.0
2015-Mar-01 10:31N 01°14' E 103°45'0 0.0
2015-Mar-01 08:28N 01°14' E 103°45'0 0.0
2015-Mar-01 06:07N 01°14' E 103°45'0 0.0
2015-Feb-28 21:28N 01°14' E 103°45'0 0.0
2015-Feb-28 16:31N 01°14' E 103°45'0 0.0
2015-Feb-28 15:04N 01°14' E 103°45'0 0.3
2015-Feb-28 14:33N 01°15' E 103°45'1 1.2
2015-Feb-28 13:33N 01°14' E 103°46'0 0.0
2015-Feb-28 12:33N 01°14' E 103°46'0 0.0
2015-Feb-28 10:15N 01°14' E 103°46'0 0.0
2015-Feb-28 09:03N 01°14' E 103°46'0 0.0
2015-Feb-28 08:33N 01°14' E 103°46'0 0.0
2015-Feb-28 07:15N 01°14' E 103°46'0 0.0
2015-Feb-28 02:12N 01°14' E 103°46'0 0.0
2015-Feb-27 22:18N 01°14' E 103°46'0 0.0
2015-Feb-27 21:30N 01°14' E 103°46'0 0.0
2015-Feb-27 20:18N 01°14' E 103°46'0 0.0
2015-Feb-27 18:30N 01°14' E 103°46'0 0.0
2015-Feb-27 17:30N 01°14' E 103°46'0 0.0
2015-Feb-27 16:18N 01°14' E 103°46'0 0.0
2015-Feb-27 15:30N 01°14' E 103°46'0 0.1
2015-Feb-27 14:33N 01°14' E 103°46'3 2.8
2015-Feb-27 13:31N 01°14' E 103°49'0 0.0
2015-Feb-27 12:25N 01°14' E 103°49'0 0.0
2015-Feb-27 11:31N 01°14' E 103°49'0 0.1
2015-Feb-27 10:25N 01°14' E 103°49'0 0.0
2015-Feb-27 09:19N 01°14' E 103°49'0 0.0
2015-Feb-27 08:13N 01°14' E 103°49'0 0.1
2015-Feb-27 07:19N 01°13' E 103°49'0 0.2
2015-Feb-27 06:33N 01°13' E 103°49'72 8.8
2015-Feb-26 22:23N 01°41' E 102°42'1612.4
2015-Feb-26 21:08N 01°47' E 102°28'  
2015-Feb-22 12:24N 02°13' E 102°05'0 0.2
2015-Feb-22 11:33N 02°13' E 102°05'0 0.0
2015-Feb-22 10:30N 02°13' E 102°05'0 0.0
2015-Feb-22 09:06N 02°13' E 102°05'  
Track history (hours):
 
Tides and Currents Weather Stations Pressure Air Temp Water Temp Dewpoint Dewpoint Depression Visibility Wind Speed Wind Dir Waves Ship Positions

Ye Chi

Last reported at 2015-Mar-04 07:27 UTC. Time now 2015-Mar-05 18:45 UTC.
Position N 01°55' E 102°21'.

Length 187 m; draft 7.5 m.

Type: Ship (hazmat cat D). MMSI: 477621300.

Date/timePositionNaut miles runAvg speedWind from/ knotsBaromVisibWave heightAir tempDewpointWater temp
2015-Mar-04 07:27N 01°55' E 102°21'1615.2
2015-Mar-04 06:22N 01°48' E 102°35'8113.9
2015-Mar-04 00:31N 01°11' E 103°47'3 3.0
2015-Mar-03 23:25N 01°14' E 103°48'0 0.0
2015-Mar-03 22:28N 01°14' E 103°48'0 0.0
2015-Mar-03 21:31N 01°14' E 103°48'0 0.0
2015-Mar-03 20:28N 01°14' E 103°48'0 0.1
2015-Mar-03 19:31N 01°14' E 103°48'0 0.0
2015-Mar-03 18:07N 01°14' E 103°48'0 0.1
2015-Mar-03 17:31N 01°14' E 103°48'0 0.1
2015-Mar-03 16:25N 01°14' E 103°48'0 0.0
2015-Mar-03 15:31N 01°14' E 103°48'0 0.0
2015-Mar-03 14:34N 01°14' E 103°48'0 0.0
2015-Mar-03 13:31N 01°14' E 103°48'0 0.1
2015-Mar-03 12:31N 01°14' E 103°48'0 0.0
2015-Mar-03 11:25N 01°14' E 103°48'0 0.1
2015-Mar-03 10:04N 01°14' E 103°48'0 0.2
2015-Mar-03 09:07N 01°14' E 103°48'0 0.0
2015-Mar-03 08:25N 01°14' E 103°48'0 0.0
2015-Mar-03 07:28N 01°14' E 103°48'0 0.0
2015-Mar-03 06:19N 01°14' E 103°48'0 0.0
2015-Mar-03 05:31N 01°14' E 103°48'0 0.0
2015-Mar-03 04:25N 01°14' E 103°48'0 0.1
2015-Mar-03 03:31N 01°14' E 103°48'0 0.0
2015-Mar-03 02:16N 01°14' E 103°48'0 0.0
2015-Mar-03 01:31N 01°14' E 103°48'8 0.4
2015-Mar-02 03:06N 01°12' E 103°40'5 9.9
2015-Mar-02 02:33N 01°15' E 103°45'0 0.2
2015-Mar-02 01:31N 01°14' E 103°45'0 0.0
2015-Mar-02 00:31N 01°14' E 103°45'0 0.0
2015-Mar-01 20:13N 01°14' E 103°45'0 0.0
2015-Mar-01 12:31N 01°14' E 103°45'0 0.0
2015-Mar-01 10:31N 01°14' E 103°45'0 0.0
2015-Mar-01 08:28N 01°14' E 103°45'0 0.0
2015-Mar-01 06:07N 01°14' E 103°45'0 0.0
2015-Feb-28 21:28N 01°14' E 103°45'0 0.0
2015-Feb-28 16:31N 01°14' E 103°45'0 0.0
2015-Feb-28 15:04N 01°14' E 103°45'0 0.3
2015-Feb-28 14:33N 01°15' E 103°45'1 1.2
2015-Feb-28 13:33N 01°14' E 103°46'0 0.0
2015-Feb-28 12:33N 01°14' E 103°46'0 0.0
2015-Feb-28 10:15N 01°14' E 103°46'0 0.0
2015-Feb-28 09:03N 01°14' E 103°46'0 0.0
2015-Feb-28 08:33N 01°14' E 103°46'0 0.0
2015-Feb-28 07:15N 01°14' E 103°46'0 0.0
2015-Feb-28 02:12N 01°14' E 103°46'0 0.0
2015-Feb-27 22:18N 01°14' E 103°46'0 0.0
2015-Feb-27 21:30N 01°14' E 103°46'0 0.0
2015-Feb-27 20:18N 01°14' E 103°46'0 0.0
2015-Feb-27 18:30N 01°14' E 103°46'0 0.0
2015-Feb-27 17:30N 01°14' E 103°46'0 0.0
2015-Feb-27 16:18N 01°14' E 103°46'0 0.0
2015-Feb-27 15:30N 01°14' E 103°46'0 0.1
2015-Feb-27 14:33N 01°14' E 103°46'3 2.8
2015-Feb-27 13:31N 01°14' E 103°49'0 0.0
2015-Feb-27 12:25N 01°14' E 103°49'0 0.0
2015-Feb-27 11:31N 01°14' E 103°49'0 0.1
2015-Feb-27 10:25N 01°14' E 103°49'0 0.0
2015-Feb-27 09:19N 01°14' E 103°49'0 0.0
2015-Feb-27 08:13N 01°14' E 103°49'0 0.1
2015-Feb-27 07:19N 01°13' E 103°49'0 0.2
2015-Feb-27 06:33N 01°13' E 103°49'72 8.8
2015-Feb-26 22:23N 01°41' E 102°42'1612.4
2015-Feb-26 21:08N 01°47' E 102°28'  
2015-Feb-22 12:24N 02°13' E 102°05'0 0.2
2015-Feb-22 11:33N 02°13' E 102°05'0 0.0
2015-Feb-22 10:30N 02°13' E 102°05'0 0.0
2015-Feb-22 09:06N 02°13' E 102°05'  

Dump ship's entire track history